createdAt,value
2019-04-19T00:00:54.331Z,10.30
2019-04-19T00:01:32.380Z,10.82
2019-04-19T00:02:08.094Z,9.50
2019-04-19T00:02:43.691Z,11.15
2019-04-19T00:03:22.327Z,10.10
2019-04-19T00:03:51.199Z,10.30
2019-04-19T00:04:26.179Z,10.15
2019-04-19T00:05:03.500Z,10.10
2019-04-19T00:05:51.199Z,9.63
2019-04-19T00:06:39.739Z,9.78
2019-04-19T00:07:20.584Z,10.00
2019-04-19T00:08:00.664Z,10.13
2019-04-19T00:08:39.584Z,9.05
2019-04-19T00:09:12.918Z,10.05
2019-04-19T00:09:49.569Z,10.80
2019-04-19T00:10:26.858Z,10.28
2019-04-19T00:10:54.126Z,10.40
2019-04-19T00:11:31.602Z,10.32
2019-04-19T00:12:09.169Z,11.22
2019-04-19T00:12:41.546Z,10.20
2019-04-19T00:13:08.195Z,10.82
2019-04-19T00:13:43.050Z,9.85
2019-04-19T00:14:16.967Z,10.25
2019-04-19T00:14:50.699Z,10.30
2019-04-19T00:15:24.490Z,10.10
2019-04-19T00:15:58.466Z,10.00
2019-04-19T00:16:32.153Z,10.20
2019-04-19T00:17:12.199Z,9.68
2019-04-19T00:17:41.765Z,10.30
2019-04-19T00:18:18.248Z,10.15
2019-04-19T00:19:18.411Z,10.55
2019-04-19T00:19:44.644Z,9.90
2019-04-19T00:20:29.856Z,9.43
2019-04-19T00:20:57.516Z,10.08
2019-04-19T00:21:30.517Z,10.75
2019-04-19T00:22:08.583Z,9.83
2019-04-19T00:22:41.264Z,10.82
2019-04-19T00:23:08.704Z,10.03
2019-04-19T00:23:38.344Z,9.93
2019-04-19T00:24:08.009Z,9.65
2019-04-19T00:24:41.740Z,9.95
2019-04-19T00:25:15.623Z,9.95
2019-04-19T00:25:49.472Z,11.35
2019-04-19T00:26:24.289Z,10.48
2019-04-19T00:26:59.068Z,10.28
2019-04-19T00:27:41.381Z,10.53
2019-04-19T00:28:08.746Z,9.60
2019-04-19T00:28:49.353Z,9.85
2019-04-19T00:29:25.757Z,9.60
2019-04-19T00:29:57.902Z,9.30
2019-04-19T00:30:41.087Z,10.03
2019-04-19T00:31:17.053Z,10.55
2019-04-19T00:31:47.944Z,9.90
2019-04-19T00:32:28.067Z,10.32
2019-04-19T00:33:04.601Z,10.63
2019-04-19T00:33:33.032Z,10.40
2019-04-19T00:34:00.936Z,10.50
2019-04-19T00:34:35.605Z,10.70
2019-04-19T00:35:09.511Z,9.50
2019-04-19T00:35:43.456Z,10.35
2019-04-19T00:36:18.249Z,10.48
2019-04-19T00:36:53.071Z,9.70
2019-04-19T00:37:26.913Z,10.82
2019-04-19T00:38:06.973Z,9.90
2019-04-19T00:38:51.452Z,9.88
2019-04-19T00:40:07.504Z,9.48
2019-04-19T00:40:38.191Z,9.88
2019-04-19T00:41:36.944Z,9.55
2019-04-19T00:42:36.249Z,9.83
2019-04-19T00:43:18.868Z,9.40
2019-04-19T00:44:06.692Z,9.80
2019-04-19T00:44:56.784Z,11.70
2019-04-19T00:45:35.064Z,11.63
2019-04-19T00:46:15.987Z,10.15
2019-04-19T00:46:59.688Z,10.13
2019-04-19T00:47:30.046Z,9.70
2019-04-19T00:47:58.580Z,10.38
2019-04-19T00:48:39.907Z,9.05
2019-04-19T00:49:12.313Z,10.45
2019-04-19T00:49:49.014Z,9.50
2019-04-19T00:50:18.564Z,11.05
2019-04-19T00:50:57.599Z,9.70
2019-04-19T00:51:36.411Z,10.20
2019-04-19T00:52:05.196Z,9.70
2019-04-19T00:52:55.740Z,10.68
2019-04-19T00:53:19.364Z,10.60
2019-04-19T00:53:47.917Z,10.48
2019-04-19T00:54:22.949Z,11.12
2019-04-19T00:55:01.215Z,10.05
2019-04-19T00:55:38.146Z,9.83
2019-04-19T00:56:09.601Z,10.70
2019-04-19T00:56:47.710Z,10.35
2019-04-19T00:57:21.368Z,10.13
2019-04-19T00:57:52.941Z,9.73
2019-04-19T00:58:27.587Z,10.80
2019-04-19T00:59:02.567Z,10.10
2019-04-19T00:59:38.631Z,9.55
2019-04-19T01:00:11.036Z,10.25
2019-04-19T01:00:44.591Z,10.53
2019-04-19T01:01:23.177Z,10.43
2019-04-19T01:02:02.758Z,10.25
2019-04-19T01:02:28.772Z,10.18
2019-04-19T01:03:02.715Z,10.45
2019-04-19T01:03:40.973Z,9.80
2019-04-19T01:04:18.296Z,9.95
2019-04-19T01:04:49.484Z,10.40
2019-04-19T01:05:26.966Z,9.95
2019-04-19T01:06:04.765Z,10.03
2019-04-19T01:06:42.027Z,10.25
2019-04-19T01:07:08.767Z,10.65
2019-04-19T01:07:43.707Z,9.70
2019-04-19T01:08:21.269Z,10.58
2019-04-19T01:09:03.751Z,11.05
2019-04-19T01:09:38.779Z,10.15
2019-04-19T01:10:20.202Z,9.80
2019-04-19T01:10:50.333Z,10.63
2019-04-19T01:11:28.629Z,9.80
2019-04-19T01:12:05.628Z,10.60
2019-04-19T01:12:41.739Z,9.73
2019-04-19T01:13:10.823Z,9.95
2019-04-19T01:13:51.402Z,10.32
2019-04-19T01:14:22.913Z,11.00
2019-04-19T01:14:59.408Z,11.05
2019-04-19T01:15:31.010Z,9.85
2019-04-19T01:16:05.897Z,10.85
2019-04-19T01:16:48.872Z,11.00
2019-04-19T01:17:19.275Z,10.13
2019-04-19T01:17:58.822Z,10.60
2019-04-19T01:18:29.685Z,10.08
2019-04-19T01:18:58.901Z,10.15
2019-04-19T01:19:28.044Z,10.28
2019-04-19T01:20:06.411Z,9.70
2019-04-19T01:20:37.366Z,11.00
2019-04-19T01:21:11.360Z,10.85
2019-04-19T01:21:44.999Z,10.82
2019-04-19T01:22:23.549Z,10.38
2019-04-19T01:22:58.863Z,10.03
2019-04-19T01:23:29.197Z,10.78
2019-04-19T01:24:05.009Z,9.70
2019-04-19T01:24:42.845Z,10.45
2019-04-19T01:25:20.506Z,9.25
2019-04-19T01:25:55.055Z,9.88
2019-04-19T01:26:23.647Z,10.48
2019-04-19T01:26:58.769Z,10.40
2019-04-19T01:27:34.757Z,11.10
2019-04-19T01:28:14.147Z,10.95
2019-04-19T01:28:45.317Z,9.58
2019-04-19T01:29:19.760Z,10.90
2019-04-19T01:29:55.991Z,10.45
2019-04-19T01:30:33.334Z,10.98
2019-04-19T01:31:10.142Z,10.18
2019-04-19T01:31:39.631Z,9.80
2019-04-19T01:32:16.716Z,11.45
2019-04-19T01:32:54.533Z,10.55
2019-04-19T01:33:36.494Z,10.63
2019-04-19T01:34:11.157Z,9.85
2019-04-19T01:34:41.966Z,10.30
2019-04-19T01:35:18.499Z,10.23
2019-04-19T01:35:53.968Z,10.55
2019-04-19T01:36:32.436Z,9.85
2019-04-19T01:37:04.442Z,10.58
2019-04-19T01:37:37.004Z,10.53
2019-04-19T01:38:13.172Z,11.35
2019-04-19T01:38:53.492Z,10.40
2019-04-19T01:39:32.139Z,10.55
2019-04-19T01:40:11.020Z,10.13
2019-04-19T01:40:53.544Z,10.35
2019-04-19T01:41:20.497Z,10.03
2019-04-19T01:41:54.750Z,10.03
2019-04-19T01:42:36.769Z,10.00
2019-04-19T01:43:12.788Z,11.43
2019-04-19T01:43:54.603Z,10.23
2019-04-19T01:44:39.971Z,10.50
2019-04-19T01:45:21.225Z,9.53
2019-04-19T01:46:19.073Z,11.50
2019-04-19T01:47:08.751Z,10.40
2019-04-19T01:48:06.145Z,10.05
2019-04-19T01:48:47.066Z,10.25
2019-04-19T01:49:42.895Z,10.58
2019-04-19T01:50:52.062Z,10.08
2019-04-19T01:51:47.795Z,9.75
2019-04-19T01:52:43.883Z,11.00
2019-04-19T01:53:09.362Z,9.50
2019-04-19T01:53:37.468Z,10.43
2019-04-19T01:54:34.659Z,10.68
2019-04-19T01:55:05.883Z,10.20
2019-04-19T01:55:33.660Z,10.63
2019-04-19T01:56:08.478Z,10.28
2019-04-19T01:56:44.883Z,10.40
2019-04-19T01:57:15.720Z,11.45
2019-04-19T01:57:49.288Z,10.08
2019-04-19T01:58:24.127Z,10.45
2019-04-19T01:59:01.519Z,10.90
2019-04-19T01:59:40.610Z,10.93
2019-04-19T02:00:13.082Z,11.53
2019-04-19T02:00:51.684Z,10.95
2019-04-19T02:01:25.956Z,10.23
2019-04-19T02:02:01.729Z,11.30
2019-04-19T02:02:32.631Z,10.70
2019-04-19T02:03:07.873Z,10.90
2019-04-19T02:03:46.246Z,10.80
2019-04-19T02:04:22.891Z,10.43
2019-04-19T02:05:00.762Z,10.30
2019-04-19T02:05:27.987Z,10.23
2019-04-19T02:06:06.116Z,10.70
2019-04-19T02:06:40.133Z,11.78
2019-04-19T02:07:17.972Z,11.03
2019-04-19T02:07:48.693Z,10.45
2019-04-19T02:08:22.726Z,10.63
2019-04-19T02:09:00.096Z,9.95
2019-04-19T02:09:48.724Z,11.60
2019-04-19T02:10:35.552Z,10.53
2019-04-19T02:11:29.467Z,9.98
2019-04-19T02:11:57.879Z,11.18
2019-04-19T02:12:37.580Z,10.53
2019-04-19T02:13:13.915Z,10.38
2019-04-19T02:13:46.609Z,11.12
2019-04-19T02:14:20.374Z,10.40
2019-04-19T02:14:56.625Z,10.30
2019-04-19T02:15:33.131Z,10.93
2019-04-19T02:15:58.045Z,10.58
2019-04-19T02:16:33.375Z,10.93
2019-04-19T02:17:11.363Z,10.68
2019-04-19T02:17:47.837Z,10.75
2019-04-19T02:18:23.296Z,10.40
2019-04-19T02:19:00.648Z,10.05
2019-04-19T02:19:31.357Z,10.70
2019-04-19T02:20:08.392Z,12.07
2019-04-19T02:20:44.526Z,11.40
2019-04-19T02:21:19.777Z,10.30
2019-04-19T02:21:51.113Z,10.68
2019-04-19T02:22:30.299Z,10.60
2019-04-19T02:23:05.772Z,10.75
2019-04-19T02:23:41.812Z,10.08
2019-04-19T02:24:12.504Z,10.25
2019-04-19T02:24:50.987Z,10.60
2019-04-19T02:25:26.128Z,10.98
2019-04-19T02:26:00.542Z,10.85
2019-04-19T02:26:32.253Z,11.95
2019-04-19T02:27:09.442Z,11.30
2019-04-19T02:27:45.557Z,9.75
2019-04-19T02:28:23.034Z,11.57
2019-04-19T02:28:51.594Z,10.30
2019-04-19T02:29:28.808Z,11.12
2019-04-19T02:30:11.159Z,10.48
2019-04-19T02:30:56.140Z,11.60
2019-04-19T02:31:32.596Z,12.05
2019-04-19T02:32:15.480Z,10.68
2019-04-19T02:33:05.634Z,10.35
2019-04-19T02:33:20.592Z,11.15
2019-04-19T02:34:03.446Z,11.50
2019-04-19T02:34:33.800Z,10.30
2019-04-19T02:35:07.900Z,10.78
2019-04-19T02:35:46.043Z,10.48
2019-04-19T02:36:27.754Z,11.08
2019-04-19T02:37:00.905Z,11.45
2019-04-19T02:37:23.181Z,10.23
2019-04-19T02:38:03.645Z,11.30
2019-04-19T02:38:46.866Z,10.53
2019-04-19T02:39:26.041Z,10.95
2019-04-19T02:39:56.555Z,10.90
2019-04-19T02:40:45.283Z,10.90
2019-04-19T02:41:00.994Z,10.55
2019-04-19T02:41:38.699Z,10.18
2019-04-19T02:42:44.533Z,11.35
2019-04-19T02:43:36.390Z,11.35
2019-04-19T02:44:04.057Z,11.00
2019-04-19T02:44:36.208Z,11.00
2019-04-19T02:45:54.676Z,11.25
2019-04-19T02:48:02.110Z,12.18
2019-04-19T02:48:44.980Z,10.60
2019-04-19T02:49:22.308Z,11.43
2019-04-19T02:49:51.494Z,11.78
2019-04-19T02:50:54.184Z,11.35
2019-04-19T02:51:39.205Z,11.25
2019-04-19T02:53:02.774Z,10.85
2019-04-19T02:53:24.326Z,10.50
2019-04-19T02:54:02.876Z,10.15
2019-04-19T02:54:40.555Z,11.55
2019-04-19T02:55:53.075Z,11.45
2019-04-19T02:58:26.379Z,11.15
2019-04-19T02:59:09.527Z,10.80
2019-04-19T02:59:59.091Z,10.60
2019-04-19T03:01:44.839Z,11.65
2019-04-19T03:02:26.675Z,12.45
2019-04-19T03:03:03.103Z,12.13
2019-04-19T03:03:27.389Z,11.95
2019-04-19T03:04:29.975Z,12.15
2019-04-19T03:05:51.786Z,11.78
2019-04-19T03:06:16.417Z,12.82
2019-04-19T03:06:45.386Z,10.63
2019-04-19T03:07:15.716Z,12.37
2019-04-19T03:07:50.870Z,11.70
2019-04-19T03:08:25.117Z,11.75
2019-04-19T03:08:58.718Z,11.80
2019-04-19T03:09:36.320Z,13.20
2019-04-19T03:10:15.649Z,12.45
2019-04-19T03:10:57.071Z,12.03
2019-04-19T03:11:35.443Z,11.18
2019-04-19T03:12:05.963Z,11.95
2019-04-19T03:12:51.681Z,12.63
2019-04-19T03:13:19.948Z,12.47
2019-04-19T03:13:55.986Z,11.60
2019-04-19T03:14:25.123Z,11.57
2019-04-19T03:15:03.937Z,12.75
2019-04-19T03:15:46.062Z,11.88
2019-04-19T03:16:27.086Z,11.22
2019-04-19T03:16:55.307Z,12.58
2019-04-19T03:17:33.660Z,11.15
2019-04-19T03:18:09.363Z,11.08
2019-04-19T03:18:38.713Z,12.70
2019-04-19T03:19:11.254Z,10.90
2019-04-19T03:19:51.782Z,11.25
2019-04-19T03:20:21.856Z,12.00
2019-04-19T03:20:54.205Z,12.03
2019-04-19T03:21:31.959Z,12.28
2019-04-19T03:22:10.072Z,11.80
2019-04-19T03:22:43.594Z,11.22
2019-04-19T03:23:19.225Z,12.93
2019-04-19T03:23:55.340Z,12.20
2019-04-19T03:24:34.239Z,12.55
2019-04-19T03:25:06.577Z,11.70
2019-04-19T03:25:37.918Z,11.73
2019-04-19T03:26:16.663Z,12.60
2019-04-19T03:26:48.147Z,12.13
2019-04-19T03:27:20.285Z,11.65
2019-04-19T03:27:56.114Z,12.30
2019-04-19T03:28:31.241Z,12.47
2019-04-19T03:29:00.025Z,12.05
2019-04-19T03:29:38.874Z,11.33
2019-04-19T03:30:23.551Z,12.45
2019-04-19T03:31:14.075Z,13.25
2019-04-19T03:31:53.722Z,11.00
2019-04-19T03:32:35.570Z,12.88
2019-04-19T03:33:25.163Z,12.43
2019-04-19T03:34:05.069Z,11.40
2019-04-19T03:34:52.855Z,11.70
2019-04-19T03:35:03.642Z,12.00
2019-04-19T03:35:49.883Z,12.70
2019-04-19T03:36:31.027Z,11.85
2019-04-19T03:36:47.651Z,11.65
2019-04-19T03:37:36.526Z,11.90
2019-04-19T03:38:08.483Z,12.28
2019-04-19T03:38:40.491Z,12.40
2019-04-19T03:39:18.001Z,12.43
2019-04-19T03:39:58.683Z,12.78
2019-04-19T03:40:42.334Z,12.85
2019-04-19T03:41:04.464Z,11.50
2019-04-19T03:42:01.442Z,13.00
2019-04-19T03:42:47.191Z,10.90
2019-04-19T03:43:31.436Z,11.90
2019-04-19T03:44:18.245Z,12.60
2019-04-19T03:45:00.264Z,12.13
2019-04-19T03:45:31.831Z,12.30
2019-04-19T03:46:10.858Z,12.25
2019-04-19T03:46:53.034Z,10.95
2019-04-19T03:47:38.382Z,11.70
2019-04-19T03:48:03.309Z,12.05
2019-04-19T03:48:28.696Z,12.18
2019-04-19T03:49:03.817Z,11.53
2019-04-19T03:49:53.384Z,13.03
2019-04-19T03:50:17.200Z,11.60
2019-04-19T03:50:54.768Z,11.80
2019-04-19T03:51:25.462Z,11.68
2019-04-19T03:52:36.987Z,13.75
2019-04-19T03:53:14.770Z,12.28
2019-04-19T03:53:51.482Z,11.75
2019-04-19T03:54:21.762Z,12.63
2019-04-19T03:55:00.043Z,12.65
2019-04-19T03:55:32.453Z,11.90
2019-04-19T03:56:09.339Z,13.62
2019-04-19T03:56:39.385Z,12.15
2019-04-19T03:57:10.155Z,12.37
2019-04-19T03:57:42.657Z,12.55
2019-04-19T03:58:14.432Z,12.40
2019-04-19T03:58:44.244Z,12.43
2019-04-19T03:59:18.328Z,12.70
2019-04-19T03:59:52.347Z,12.20
2019-04-19T04:00:26.159Z,12.33
2019-04-19T04:01:00.083Z,11.35
2019-04-19T04:01:37.562Z,11.63
2019-04-19T04:02:09.819Z,12.68
2019-04-19T04:02:46.743Z,12.80
2019-04-19T04:03:26.231Z,12.70
2019-04-19T04:04:01.933Z,12.63
2019-04-19T04:04:32.070Z,12.05
2019-04-19T04:05:09.760Z,12.03
2019-04-19T04:05:44.393Z,11.78
2019-04-19T04:06:23.084Z,12.58
2019-04-19T04:06:50.583Z,12.13
2019-04-19T04:07:28.616Z,12.47
2019-04-19T04:08:19.792Z,12.18
2019-04-19T04:08:59.897Z,11.25
2019-04-19T04:09:47.475Z,11.85
2019-04-19T04:10:37.682Z,11.35
2019-04-19T04:11:29.967Z,11.88
2019-04-19T04:12:46.835Z,11.38
2019-04-19T04:13:29.818Z,11.38
2019-04-19T04:14:07.516Z,11.75
2019-04-19T04:14:52.952Z,12.33
2019-04-19T04:15:50.216Z,12.68
2019-04-19T04:16:30.687Z,12.00
2019-04-19T04:17:14.421Z,12.10
2019-04-19T04:17:48.275Z,12.00
2019-04-19T04:18:21.853Z,12.93
2019-04-19T04:18:55.858Z,12.35
2019-04-19T04:19:29.478Z,12.68
2019-04-19T04:20:03.202Z,11.85
2019-04-19T04:20:43.957Z,12.82
2019-04-19T04:21:12.620Z,11.97
2019-04-19T04:21:49.290Z,11.88
2019-04-19T04:22:27.867Z,12.78
2019-04-19T04:23:05.493Z,11.97
2019-04-19T04:23:37.586Z,11.97
2019-04-19T04:24:16.439Z,12.40
2019-04-19T04:24:55.446Z,12.03
2019-04-19T04:25:22.541Z,11.78
2019-04-19T04:26:01.375Z,12.95
2019-04-19T04:26:35.368Z,11.30
2019-04-19T04:27:09.842Z,11.95
2019-04-19T04:27:52.376Z,11.83
2019-04-19T04:28:26.363Z,12.15
2019-04-19T04:29:01.748Z,12.93
2019-04-19T04:29:32.572Z,12.20
2019-04-19T04:30:10.116Z,11.65
2019-04-19T04:30:50.390Z,12.13
2019-04-19T04:31:19.563Z,12.00
2019-04-19T04:31:58.069Z,12.25
2019-04-19T04:32:40.546Z,12.30
2019-04-19T04:33:07.138Z,12.63
2019-04-19T04:33:48.247Z,13.05
2019-04-19T04:34:26.907Z,11.95
2019-04-19T04:34:55.289Z,11.33
2019-04-19T04:35:36.527Z,11.73
2019-04-19T04:36:19.733Z,11.30
2019-04-19T04:36:49.662Z,11.05
2019-04-19T04:37:25.760Z,11.83
2019-04-19T04:37:55.990Z,11.33
2019-04-19T04:38:25.814Z,11.43
2019-04-19T04:38:53.027Z,11.85
2019-04-19T04:39:28.222Z,12.18
2019-04-19T04:40:02.310Z,11.38
2019-04-19T04:40:36.011Z,12.47
2019-04-19T04:41:17.002Z,11.05
2019-04-19T04:41:45.961Z,11.68
2019-04-19T04:42:28.399Z,11.40
2019-04-19T04:43:10.944Z,12.63
2019-04-19T04:43:42.568Z,11.00
2019-04-19T04:44:22.837Z,12.25
2019-04-19T04:45:10.393Z,11.60
2019-04-19T04:45:35.495Z,12.25
2019-04-19T04:46:22.007Z,11.95
2019-04-19T04:47:07.985Z,12.37
2019-04-19T04:47:53.316Z,22.65
2019-04-19T04:48:38.601Z,17.52
2019-04-19T04:49:30.813Z,15.13
2019-04-19T04:50:06.563Z,15.95
2019-04-19T04:50:50.771Z,19.25
2019-04-19T04:51:39.392Z,13.70
2019-04-19T04:52:18.256Z,12.73
2019-04-19T04:52:52.292Z,13.58
2019-04-19T04:53:40.759Z,14.85
2019-04-19T04:54:18.601Z,12.35
2019-04-19T04:54:54.465Z,14.03
2019-04-19T04:55:32.532Z,16.12
2019-04-19T04:56:10.914Z,11.75
2019-04-19T04:56:59.162Z,12.90
2019-04-19T04:57:37.863Z,13.53
2019-04-19T04:58:06.670Z,11.95
2019-04-19T04:58:42.395Z,12.33
2019-04-19T04:59:19.911Z,13.38
2019-04-19T04:59:52.089Z,13.32
2019-04-19T05:00:30.711Z,13.58
2019-04-19T05:01:06.778Z,11.70
2019-04-19T05:01:46.476Z,12.37
2019-04-19T05:02:23.280Z,11.20
2019-04-19T05:03:00.462Z,12.63
2019-04-19T05:03:38.775Z,11.80
2019-04-19T05:04:11.982Z,15.00
2019-04-19T05:04:43.286Z,12.53
2019-04-19T05:05:24.611Z,15.00
2019-04-19T05:06:04.193Z,12.63
2019-04-19T05:06:30.916Z,12.13
2019-04-19T05:07:09.905Z,12.20
2019-04-19T05:07:48.836Z,11.63
2019-04-19T05:08:21.737Z,11.65
2019-04-19T05:08:53.803Z,11.50
2019-04-19T05:09:32.218Z,12.75
2019-04-19T05:10:06.051Z,11.85
2019-04-19T05:10:35.946Z,12.68
2019-04-19T05:11:16.777Z,11.65
2019-04-19T05:12:01.418Z,10.88
2019-04-19T05:12:36.524Z,12.40
2019-04-19T05:13:39.516Z,12.75
2019-04-19T05:14:11.546Z,11.90
2019-04-19T05:14:45.301Z,11.70
2019-04-19T05:15:26.591Z,11.48
2019-04-19T05:15:58.145Z,11.85
2019-04-19T05:16:39.343Z,11.15
2019-04-19T05:17:24.563Z,11.53
2019-04-19T05:18:05.041Z,12.47
2019-04-19T05:18:54.286Z,12.70
2019-04-19T05:19:34.811Z,11.73
2019-04-19T05:20:11.964Z,11.03
2019-04-19T05:20:38.482Z,13.83
2019-04-19T05:21:17.986Z,11.65
2019-04-19T05:21:44.680Z,10.78
2019-04-19T05:22:22.141Z,10.80
2019-04-19T05:22:59.413Z,10.98
2019-04-19T05:23:31.736Z,11.18
2019-04-19T05:24:14.995Z,11.90
2019-04-19T05:24:56.700Z,11.97
2019-04-19T05:25:31.045Z,11.20
2019-04-19T05:26:01.123Z,13.03
2019-04-19T05:26:52.652Z,11.40
2019-04-19T05:27:48.788Z,12.07
2019-04-19T05:28:16.684Z,11.30
2019-04-19T05:28:50.326Z,10.82
2019-04-19T05:29:21.879Z,11.65
2019-04-19T05:29:49.901Z,11.22
2019-04-19T05:30:33.107Z,11.68
2019-04-19T05:31:02.112Z,11.40
2019-04-19T05:31:39.676Z,12.40
2019-04-19T05:32:15.552Z,11.70
2019-04-19T05:32:49.072Z,11.40
2019-04-19T05:33:27.731Z,11.85
2019-04-19T05:34:17.150Z,11.45
2019-04-19T05:34:48.169Z,11.38
2019-04-19T05:35:16.750Z,12.05
2019-04-19T05:36:01.385Z,10.48
2019-04-19T05:36:36.197Z,11.80
2019-04-19T05:37:10.251Z,12.63
2019-04-19T05:37:54.801Z,11.63
2019-04-19T05:38:56.109Z,11.15
2019-04-19T05:39:49.671Z,11.63
2019-04-19T05:40:22.749Z,11.25
2019-04-19T05:41:01.783Z,10.90
2019-04-19T05:42:00.033Z,11.80
2019-04-19T05:42:49.217Z,11.78
2019-04-19T05:43:50.068Z,12.25
2019-04-19T05:45:15.826Z,10.85
2019-04-19T05:45:45.426Z,11.50
2019-04-19T05:46:37.736Z,11.18
2019-04-19T05:46:51.744Z,12.13
2019-04-19T05:47:24.980Z,10.68
2019-04-19T05:47:50.365Z,11.60
2019-04-19T05:48:28.624Z,11.60
2019-04-19T05:49:06.436Z,11.70
2019-04-19T05:49:42.970Z,11.12
2019-04-19T05:50:27.986Z,12.35
2019-04-19T05:51:06.134Z,11.45
2019-04-19T05:51:34.519Z,11.30
2019-04-19T05:52:10.393Z,10.90
2019-04-19T05:52:39.787Z,12.20
2019-04-19T05:53:12.324Z,10.95
2019-04-19T05:53:39.631Z,10.70
2019-04-19T05:54:11.513Z,10.20
2019-04-19T05:54:43.043Z,11.20
2019-04-19T05:55:19.006Z,10.88
2019-04-19T05:55:52.224Z,12.55
2019-04-19T05:56:26.357Z,11.60
2019-04-19T05:57:16.828Z,11.35
2019-04-19T05:57:50.399Z,11.50
2019-04-19T05:58:20.632Z,11.50
2019-04-19T05:58:59.205Z,11.63
2019-04-19T05:59:33.351Z,12.05
2019-04-19T06:00:04.830Z,11.90
2019-04-19T06:00:46.958Z,10.88
2019-04-19T06:01:27.792Z,10.50
2019-04-19T06:01:59.254Z,11.38
2019-04-19T06:02:26.582Z,11.55
2019-04-19T06:03:06.507Z,11.43
2019-04-19T06:03:46.042Z,11.10
2019-04-19T06:04:22.644Z,11.65
2019-04-19T06:05:05.776Z,10.75
2019-04-19T06:05:36.643Z,11.45
2019-04-19T06:06:14.469Z,11.43
2019-04-19T06:06:47.558Z,11.85
2019-04-19T06:07:17.737Z,11.12
2019-04-19T06:07:45.563Z,11.50
2019-04-19T06:08:18.607Z,12.45
2019-04-19T06:08:45.755Z,11.25
2019-04-19T06:09:19.636Z,11.22
2019-04-19T06:09:54.073Z,11.38
2019-04-19T06:10:35.354Z,11.70
2019-04-19T06:11:06.008Z,10.78
2019-04-19T06:11:42.554Z,11.80
2019-04-19T06:12:19.769Z,10.40
2019-04-19T06:12:55.476Z,12.47
2019-04-19T06:13:23.821Z,10.72
2019-04-19T06:14:19.215Z,11.18
2019-04-19T06:15:01.072Z,11.38
2019-04-19T06:15:34.310Z,11.78
2019-04-19T06:16:07.357Z,12.23
2019-04-19T06:16:35.031Z,10.72
2019-04-19T06:17:30.868Z,10.82
2019-04-19T06:18:09.610Z,11.05
2019-04-19T06:19:03.809Z,11.10
2019-04-19T06:19:35.364Z,10.70
2019-04-19T06:20:18.178Z,10.32
2019-04-19T06:20:56.310Z,12.47
2019-04-19T06:21:27.804Z,11.48
2019-04-19T06:21:57.140Z,10.70
2019-04-19T06:22:42.999Z,11.53
2019-04-19T06:23:12.150Z,11.53
2019-04-19T06:23:55.506Z,12.10
2019-04-19T06:24:28.957Z,12.30
2019-04-19T06:24:56.865Z,11.93
2019-04-19T06:25:46.246Z,11.20
2019-04-19T06:26:43.747Z,11.28
2019-04-19T06:27:00.843Z,11.00
2019-04-19T06:27:25.242Z,12.10
2019-04-19T06:28:36.949Z,10.68
2019-04-19T06:29:10.093Z,11.20
2019-04-19T06:29:50.315Z,11.40
2019-04-19T06:30:24.948Z,11.05
2019-04-19T06:30:53.429Z,11.50
2019-04-19T06:31:37.033Z,10.78
2019-04-19T06:32:07.384Z,11.68
2019-04-19T06:32:46.118Z,10.88
2019-04-19T06:33:19.990Z,11.70
2019-04-19T06:33:53.716Z,11.28
2019-04-19T06:34:29.150Z,11.73
2019-04-19T06:34:59.176Z,10.93
2019-04-19T06:35:29.946Z,11.80
2019-04-19T06:35:58.578Z,11.90
2019-04-19T06:36:29.331Z,12.05
2019-04-19T06:37:11.058Z,12.33
2019-04-19T06:37:39.157Z,12.00
2019-04-19T06:38:13.921Z,11.00
2019-04-19T06:38:48.605Z,11.80
2019-04-19T06:39:22.600Z,12.05
2019-04-19T06:40:03.779Z,12.37
2019-04-19T06:40:34.646Z,12.20
2019-04-19T06:41:10.959Z,11.35
2019-04-19T06:41:50.997Z,11.30
2019-04-19T06:42:25.979Z,11.80
2019-04-19T06:42:59.671Z,11.05
2019-04-19T06:43:40.932Z,10.93
2019-04-19T06:44:12.718Z,11.48
2019-04-19T06:45:00.681Z,10.93
2019-04-19T06:45:32.220Z,12.10
2019-04-19T06:46:02.226Z,12.25
2019-04-19T06:46:36.437Z,11.90
2019-04-19T06:47:09.243Z,12.80
2019-04-19T06:47:45.083Z,11.75
2019-04-19T06:48:15.121Z,11.30
2019-04-19T06:48:54.327Z,11.73
2019-04-19T06:49:23.733Z,11.43
2019-04-19T06:49:56.181Z,11.25
2019-04-19T06:50:36.772Z,11.33
2019-04-19T06:51:14.696Z,11.73
2019-04-19T06:51:49.763Z,10.50
2019-04-19T06:52:21.836Z,11.10
2019-04-19T06:52:53.103Z,11.50
2019-04-19T06:53:36.599Z,12.50
2019-04-19T06:54:06.022Z,10.75
2019-04-19T06:54:41.618Z,11.40
2019-04-19T06:55:20.904Z,10.82
2019-04-19T06:55:52.841Z,10.70
2019-04-19T06:56:30.279Z,11.53
2019-04-19T06:57:10.891Z,12.20
2019-04-19T06:57:42.350Z,10.82
2019-04-19T06:58:15.629Z,12.15
2019-04-19T06:58:55.879Z,12.50
2019-04-19T06:59:37.303Z,12.10
2019-04-19T07:00:11.997Z,11.63
2019-04-19T07:00:45.233Z,11.50
2019-04-19T07:01:20.368Z,12.30
2019-04-19T07:01:47.280Z,12.28
2019-04-19T07:02:16.109Z,11.53
2019-04-19T07:02:49.795Z,12.07
2019-04-19T07:03:23.649Z,11.53
2019-04-19T07:03:57.939Z,12.05
2019-04-19T07:04:31.901Z,12.05
2019-04-19T07:05:18.710Z,12.60
2019-04-19T07:06:00.922Z,11.50
2019-04-19T07:06:32.119Z,11.38
2019-04-19T07:07:12.083Z,12.85
2019-04-19T07:07:50.631Z,12.05
2019-04-19T07:08:43.784Z,12.70
2019-04-19T07:09:37.102Z,11.63
2019-04-19T07:10:17.626Z,11.85
2019-04-19T07:10:51.529Z,12.30
2019-04-19T07:11:22.249Z,12.03
2019-04-19T07:12:00.879Z,12.68
2019-04-19T07:12:34.085Z,11.68
2019-04-19T07:13:04.718Z,11.55
2019-04-19T07:13:37.647Z,11.95
2019-04-19T07:14:06.762Z,12.68
2019-04-19T07:14:36.543Z,13.03
2019-04-19T07:15:38.776Z,11.53
2019-04-19T07:16:08.618Z,10.80
2019-04-19T07:16:39.420Z,11.53
2019-04-19T07:17:15.169Z,11.75
2019-04-19T07:17:47.145Z,11.85
2019-04-19T07:18:27.392Z,11.30
2019-04-19T07:18:52.073Z,12.45
2019-04-19T07:19:40.973Z,11.63
2019-04-19T07:20:08.866Z,11.22
2019-04-19T07:20:44.891Z,12.00
2019-04-19T07:21:26.342Z,11.25
2019-04-19T07:21:57.759Z,11.78
2019-04-19T07:22:36.249Z,11.83
2019-04-19T07:23:02.787Z,11.38
2019-04-19T07:23:46.439Z,10.65
2019-04-19T07:24:29.425Z,11.18
2019-04-19T07:24:59.715Z,11.40
2019-04-19T07:25:40.999Z,12.18
2019-04-19T07:26:09.978Z,11.65
2019-04-19T07:26:44.209Z,11.55
2019-04-19T07:27:15.092Z,11.90
2019-04-19T07:27:44.258Z,11.70
2019-04-19T07:28:16.563Z,11.05
2019-04-19T07:28:45.462Z,12.40
2019-04-19T07:29:21.145Z,11.43
2019-04-19T07:29:58.895Z,11.25
2019-04-19T07:30:32.797Z,12.53
2019-04-19T07:31:11.001Z,10.95
2019-04-19T07:31:44.864Z,11.75
2019-04-19T07:32:31.930Z,11.78
2019-04-19T07:33:03.408Z,11.45
2019-04-19T07:33:45.481Z,11.15
2019-04-19T07:34:27.058Z,11.88
2019-04-19T07:35:03.354Z,11.70
2019-04-19T07:35:53.108Z,12.03
2019-04-19T07:36:17.188Z,11.38
2019-04-19T07:36:57.563Z,11.95
2019-04-19T07:37:30.349Z,12.47
2019-04-19T07:38:17.223Z,12.20
2019-04-19T07:38:46.465Z,10.78
2019-04-19T07:39:23.989Z,11.80
2019-04-19T07:40:05.750Z,12.10
2019-04-19T07:40:42.482Z,11.40
2019-04-19T07:41:18.289Z,11.40
2019-04-19T07:41:54.295Z,12.15
2019-04-19T07:42:30.347Z,10.85
2019-04-19T07:43:04.418Z,11.05
2019-04-19T07:44:02.966Z,12.25
2019-04-19T07:44:41.162Z,11.50
2019-04-19T07:45:39.746Z,11.15
2019-04-19T07:46:19.410Z,11.65
2019-04-19T07:47:25.410Z,10.72
2019-04-19T07:47:58.733Z,11.65
2019-04-19T07:48:36.417Z,11.43
2019-04-19T07:49:12.780Z,11.00
2019-04-19T07:49:57.288Z,12.00
2019-04-19T07:51:05.765Z,13.10
2019-04-19T07:51:44.069Z,12.20
2019-04-19T07:52:19.313Z,12.63
2019-04-19T07:52:55.425Z,11.80
2019-04-19T07:53:32.045Z,11.97
2019-04-19T07:54:08.549Z,11.50
2019-04-19T07:54:39.069Z,12.20
2019-04-19T07:55:15.542Z,11.18
2019-04-19T07:56:02.087Z,10.82
2019-04-19T07:56:39.108Z,11.80
2019-04-19T07:57:39.426Z,11.93
2019-04-19T07:58:16.511Z,11.03
2019-04-19T07:59:22.310Z,10.58
2019-04-19T07:59:54.776Z,11.20
2019-04-19T08:01:54.244Z,11.63
2019-04-19T08:04:19.878Z,12.70
2019-04-19T08:05:54.994Z,12.45
2019-04-19T08:06:37.145Z,11.93
2019-04-19T08:08:56.075Z,12.00
2019-04-19T08:09:34.765Z,11.53
2019-04-19T08:11:25.882Z,11.33
2019-04-19T08:12:03.147Z,11.93
2019-04-19T08:12:40.231Z,11.12
2019-04-19T08:14:22.662Z,11.53
2019-04-19T08:15:38.733Z,11.95
2019-04-19T08:17:42.199Z,10.72
2019-04-19T08:17:58.950Z,11.80
2019-04-19T08:27:31.038Z,11.35